createdAt,value
2019-04-05T00:00:14.754Z,4.81
2019-04-05T00:02:44.256Z,4.81
2019-04-05T00:05:14.344Z,4.76
2019-04-05T00:07:43.857Z,4.72
2019-04-05T00:10:14.547Z,4.70
2019-04-05T00:12:44.195Z,4.64
2019-04-05T00:15:15.959Z,4.64
2019-04-05T00:17:45.773Z,4.58
2019-04-05T00:20:17.020Z,4.54
2019-04-05T00:22:46.506Z,4.52
2019-04-05T00:25:16.127Z,4.48
2019-04-05T00:27:45.624Z,4.50
2019-04-05T00:30:15.592Z,4.51
2019-04-05T00:32:45.048Z,4.59
2019-04-05T00:35:14.721Z,4.65
2019-04-05T00:37:44.197Z,4.71
2019-04-05T00:40:14.253Z,4.80
2019-04-05T00:42:43.773Z,4.89
2019-04-05T00:45:32.577Z,4.93
2019-04-05T00:48:02.244Z,4.99
2019-04-05T00:50:31.766Z,4.90
2019-04-05T00:53:01.271Z,4.94
2019-04-05T00:55:30.774Z,4.93
2019-04-05T00:58:00.511Z,5.00
2019-04-05T01:00:49.327Z,5.01
2019-04-05T01:03:18.811Z,5.00
2019-04-05T01:05:48.679Z,5.00
2019-04-05T01:08:18.333Z,5.05
2019-04-05T01:10:47.977Z,5.14
2019-04-05T01:13:17.831Z,5.22
2019-04-05T01:15:47.330Z,5.21
2019-04-05T01:18:17.096Z,5.25
2019-04-05T01:20:50.029Z,5.18
2019-04-05T01:23:21.052Z,5.12
2019-04-05T01:26:10.299Z,5.05
2019-04-05T01:28:42.903Z,4.70
2019-04-05T01:31:31.665Z,4.82
2019-04-05T01:34:01.217Z,4.67
2019-04-05T01:36:30.704Z,4.55
2019-04-05T01:39:00.145Z,4.58
2019-04-05T01:41:30.256Z,4.74
2019-04-05T01:43:59.867Z,4.87
2019-04-05T01:46:29.419Z,4.82
2019-04-05T01:48:59.338Z,4.94
2019-04-05T01:51:28.824Z,5.13
2019-04-05T01:54:17.615Z,4.81
2019-04-05T01:56:47.098Z,5.10
2019-04-05T01:59:16.660Z,5.00
2019-04-05T02:01:46.329Z,5.03
2019-04-05T02:04:15.811Z,5.02
2019-04-05T02:06:45.601Z,4.99
2019-04-05T02:09:16.830Z,4.97
2019-04-05T02:11:47.907Z,4.99
2019-04-05T02:14:19.232Z,4.94
2019-04-05T02:16:49.026Z,4.94
2019-04-05T02:19:20.278Z,4.94
2019-04-05T02:21:49.790Z,4.94
2019-04-05T02:24:19.262Z,4.95
2019-04-05T02:26:49.059Z,4.93
2019-04-05T02:29:18.541Z,4.93
2019-04-05T02:31:49.885Z,4.90
2019-04-05T02:34:38.662Z,4.99
2019-04-05T02:37:09.935Z,5.04
2019-04-05T02:39:39.582Z,5.05
2019-04-05T02:42:12.543Z,4.97
2019-04-05T02:44:46.289Z,4.97
2019-04-05T02:47:16.487Z,5.00
2019-04-05T02:49:47.977Z,5.08
2019-04-05T02:52:21.491Z,5.05
2019-04-05T02:54:53.274Z,5.05
2019-04-05T02:57:23.570Z,5.04
2019-04-05T02:59:54.411Z,5.08
2019-04-05T03:02:24.698Z,5.05
2019-04-05T03:04:54.998Z,5.11
2019-04-05T03:07:27.036Z,5.14
2019-04-05T03:09:59.131Z,4.80
2019-04-05T03:12:29.799Z,4.92
2019-04-05T03:15:03.417Z,4.97
2019-04-05T03:17:36.481Z,5.02
2019-04-05T03:20:08.379Z,5.08
2019-04-05T03:22:38.657Z,5.14
2019-04-05T03:25:08.859Z,5.19
2019-04-05T03:27:39.954Z,5.21
2019-04-05T03:30:09.944Z,5.28
2019-04-05T03:32:49.197Z,5.34
2019-04-05T03:35:19.212Z,5.26
2019-04-05T03:37:48.863Z,5.16
2019-04-05T03:40:18.591Z,5.23
2019-04-05T03:42:48.502Z,5.29
2019-04-05T03:45:18.576Z,5.34
2019-04-05T03:47:48.617Z,5.38
2019-04-05T03:50:19.526Z,5.48
2019-04-05T03:52:49.171Z,5.50
2019-04-05T03:55:19.126Z,5.44
2019-04-05T03:57:49.141Z,5.37
2019-04-05T04:00:18.991Z,4.87
2019-04-05T04:02:48.947Z,5.30
2019-04-05T04:05:18.865Z,5.23
2019-04-05T04:07:48.509Z,5.30
2019-04-05T04:10:19.844Z,5.30
2019-04-05T04:12:50.293Z,5.25
2019-04-05T04:15:21.606Z,5.27
2019-04-05T04:17:51.720Z,5.29
2019-04-05T04:20:26.651Z,5.17
2019-04-05T04:22:56.274Z,5.16
2019-04-05T04:25:25.995Z,5.21
2019-04-05T04:27:55.762Z,5.27
2019-04-05T04:30:27.582Z,5.34
2019-04-05T04:32:57.676Z,5.41
2019-04-05T04:35:30.835Z,5.35
2019-04-05T04:38:01.180Z,5.38
2019-04-05T04:40:32.326Z,5.29
2019-04-05T04:43:03.245Z,5.30
2019-04-05T04:45:34.241Z,5.40
2019-04-05T04:48:04.509Z,5.38
2019-04-05T04:50:35.412Z,5.45
2019-04-05T04:53:05.468Z,5.54
2019-04-05T04:55:36.269Z,5.48
2019-04-05T04:58:06.609Z,5.39
2019-04-05T05:00:36.927Z,5.44
2019-04-05T05:03:06.763Z,5.43
2019-04-05T05:05:36.733Z,5.33
2019-04-05T05:08:06.924Z,5.34
2019-04-05T05:10:36.918Z,5.38
2019-04-05T05:13:06.836Z,5.36
2019-04-05T05:15:36.931Z,5.18
2019-04-05T05:18:06.726Z,5.18
2019-04-05T05:20:36.947Z,5.12
2019-04-05T05:23:06.716Z,5.20
2019-04-05T05:25:36.402Z,5.03
2019-04-05T05:28:06.608Z,5.19
2019-04-05T05:30:36.505Z,5.29
2019-04-05T05:33:06.421Z,5.40
2019-04-05T05:35:36.306Z,5.50
2019-04-05T05:38:25.129Z,5.61
2019-04-05T05:40:54.923Z,5.62
2019-04-05T05:43:24.547Z,5.54
2019-04-05T05:45:54.052Z,5.42
2019-04-05T05:48:23.921Z,5.43
2019-04-05T05:50:54.925Z,5.40
2019-04-05T05:53:24.742Z,5.44
2019-04-05T05:55:54.224Z,5.46
2019-04-05T05:58:25.878Z,5.56
2019-04-05T06:00:54.893Z,5.64
2019-04-05T06:03:43.714Z,5.65
2019-04-05T06:06:13.195Z,5.65
2019-04-05T06:08:42.668Z,5.76
2019-04-05T06:11:12.181Z,5.78
2019-04-05T06:13:41.687Z,5.87
2019-04-05T06:16:11.245Z,5.95
2019-04-05T06:18:40.743Z,6.02
2019-04-05T06:21:10.471Z,6.04
2019-04-05T06:23:39.932Z,6.09
2019-04-05T06:26:09.484Z,6.17
2019-04-05T06:28:39.282Z,6.27
2019-04-05T06:31:10.365Z,6.28
2019-04-05T06:33:40.229Z,6.37
2019-04-05T06:36:09.717Z,6.37
2019-04-05T06:38:39.215Z,6.52
2019-04-05T06:41:09.093Z,6.53
2019-04-05T06:43:38.577Z,6.30
2019-04-05T06:46:08.082Z,6.52
2019-04-05T06:48:37.727Z,6.28
2019-04-05T06:51:07.352Z,6.75
2019-04-05T06:53:36.803Z,6.98
2019-04-05T06:56:06.446Z,6.85
2019-04-05T06:58:35.915Z,7.22
2019-04-05T07:01:05.529Z,7.52
2019-04-05T07:03:35.067Z,7.31
2019-04-05T07:06:04.588Z,7.59
2019-04-05T07:08:34.055Z,7.62
2019-04-05T07:11:03.564Z,7.35
2019-04-05T07:13:33.152Z,7.71
2019-04-05T07:16:02.653Z,7.66
2019-04-05T07:18:36.014Z,7.89
2019-04-05T07:21:03.428Z,7.91
2019-04-05T07:23:32.906Z,8.02
2019-04-05T07:26:02.474Z,8.09
2019-04-05T07:28:31.962Z,8.07
2019-04-05T07:31:01.429Z,8.24
2019-04-05T07:33:31.242Z,8.29
2019-04-05T07:36:04.355Z,8.36
2019-04-05T07:38:33.862Z,8.26
2019-04-05T07:41:03.394Z,8.15
2019-04-05T07:43:32.893Z,8.60
2019-04-05T07:46:02.784Z,8.74
2019-04-05T07:48:43.788Z,8.83
2019-04-05T07:51:03.551Z,8.90
2019-04-05T07:53:33.036Z,9.08
2019-04-05T07:56:03.237Z,9.34
2019-04-05T07:58:32.716Z,9.53
2019-04-05T08:01:05.502Z,9.36
2019-04-05T08:03:35.029Z,9.33
2019-04-05T08:06:04.941Z,9.70
2019-04-05T08:08:38.988Z,9.65
2019-04-05T08:11:08.807Z,10.07
2019-04-05T08:13:41.796Z,10.37
2019-04-05T08:16:11.356Z,10.56
2019-04-05T08:18:41.087Z,10.91
2019-04-05T08:21:10.715Z,11.05
2019-04-05T08:23:40.261Z,11.02
2019-04-05T08:26:09.811Z,11.12
2019-04-05T08:28:39.291Z,9.85
2019-04-05T08:31:10.860Z,10.00
2019-04-05T08:33:40.050Z,10.83
2019-04-05T08:36:11.126Z,11.82
2019-04-05T08:38:44.738Z,9.90
2019-04-05T08:41:14.300Z,11.22
2019-04-05T08:43:43.819Z,11.51
2019-04-05T08:46:13.409Z,12.73
2019-04-05T08:48:42.917Z,13.24
2019-04-05T08:51:12.422Z,13.34
2019-04-05T08:53:41.925Z,13.76
2019-04-05T08:56:11.451Z,13.60
2019-04-05T08:58:40.957Z,13.70
2019-04-05T09:01:10.479Z,13.85
2019-04-05T09:03:59.314Z,14.81
2019-04-05T09:06:28.830Z,16.69
2019-04-05T09:08:58.295Z,17.95
2019-04-05T09:11:27.787Z,19.36
2019-04-05T09:13:57.296Z,19.50
2019-04-05T09:16:26.863Z,20.38
2019-04-05T09:18:56.365Z,18.34
2019-04-05T09:21:25.836Z,18.34
2019-04-05T09:23:55.338Z,18.77
2019-04-05T09:26:25.167Z,17.20
2019-04-05T09:28:55.331Z,17.16
2019-04-05T09:31:24.859Z,14.40
2019-04-05T09:33:54.409Z,14.05
2019-04-05T09:36:23.886Z,12.34
2019-04-05T09:38:53.390Z,12.87
2019-04-05T09:41:22.900Z,11.81
2019-04-05T09:43:52.392Z,11.26
2019-04-05T09:46:21.867Z,10.65
2019-04-05T09:48:51.372Z,9.66
2019-04-05T09:51:20.832Z,10.05
2019-04-05T09:53:50.402Z,9.85
2019-04-05T09:56:19.924Z,9.26
2019-04-05T09:58:49.423Z,9.62
2019-04-05T10:01:18.959Z,10.21
2019-04-05T10:03:48.464Z,9.51
2019-04-05T10:06:17.950Z,8.92
2019-04-05T10:08:47.449Z,9.29
2019-04-05T10:11:16.917Z,9.89
2019-04-05T10:13:46.391Z,10.19
2019-04-05T10:16:15.896Z,10.56
2019-04-05T10:18:45.579Z,10.69
2019-04-05T10:21:14.949Z,10.71
2019-04-05T10:23:44.409Z,10.63
2019-04-05T10:26:13.903Z,10.10
2019-04-05T10:28:43.388Z,10.39
2019-04-05T10:31:12.927Z,10.19
2019-04-05T10:33:42.451Z,10.37
2019-04-05T10:36:11.944Z,9.94
2019-04-05T10:39:00.746Z,9.26
2019-04-05T10:41:30.220Z,10.03
2019-04-05T10:43:59.723Z,9.98
2019-04-05T10:46:29.333Z,10.18
2019-04-05T10:48:58.858Z,10.26
2019-04-05T10:51:29.817Z,10.28
2019-04-05T10:54:18.726Z,9.94
2019-04-05T10:56:48.213Z,10.62
2019-04-05T10:59:17.691Z,10.49
2019-04-05T11:01:47.198Z,10.92
2019-04-05T11:04:16.848Z,10.46
2019-04-05T11:06:47.573Z,10.67
2019-04-05T11:09:17.066Z,11.05
2019-04-05T11:11:46.550Z,10.41
2019-04-05T11:14:16.037Z,10.91
2019-04-05T11:16:57.894Z,10.83
2019-04-05T11:19:16.723Z,10.63
2019-04-05T11:21:47.904Z,10.84
2019-04-05T11:24:17.432Z,10.44
2019-04-05T11:26:46.886Z,9.91
2019-04-05T11:29:16.352Z,10.29
2019-04-05T11:31:56.382Z,10.26
2019-04-05T11:34:17.934Z,10.24
2019-04-05T11:36:47.873Z,10.15
2019-04-05T11:39:17.660Z,9.99
2019-04-05T11:41:50.124Z,9.84
2019-04-05T11:44:19.894Z,9.95
2019-04-05T11:47:08.727Z,10.12
2019-04-05T11:49:39.827Z,10.78
2019-04-05T11:52:10.819Z,11.01
2019-04-05T11:54:40.384Z,11.22
2019-04-05T11:57:09.935Z,11.09
2019-04-05T11:59:39.690Z,10.53
2019-04-05T12:02:10.805Z,10.31
2019-04-05T12:04:42.694Z,10.09
2019-04-05T12:07:11.492Z,10.33
2019-04-05T12:09:41.030Z,10.34
2019-04-05T12:12:10.488Z,10.35
2019-04-05T12:14:39.956Z,10.63
2019-04-05T12:17:09.804Z,10.67
2019-04-05T12:19:39.402Z,10.30
2019-04-05T12:22:09.353Z,10.89
2019-04-05T12:24:38.964Z,10.60
2019-04-05T12:27:08.522Z,10.41
2019-04-05T12:29:37.987Z,10.53
2019-04-05T12:32:07.555Z,9.95
2019-04-05T12:34:37.009Z,9.81
2019-04-05T12:37:06.568Z,9.67
2019-04-05T12:39:37.184Z,9.71
2019-04-05T12:42:06.915Z,9.37
2019-04-05T12:44:36.384Z,9.44
2019-04-05T12:47:06.373Z,9.47
2019-04-05T12:49:35.858Z,9.50
2019-04-05T12:52:05.554Z,9.48
2019-04-05T12:54:35.056Z,9.36
2019-04-05T12:57:04.606Z,9.47
2019-04-05T12:59:34.103Z,9.47
2019-04-05T13:02:03.575Z,9.89
2019-04-05T13:04:33.090Z,10.00
2019-04-05T13:07:02.571Z,10.07
2019-04-05T13:09:32.463Z,10.05
2019-04-05T13:12:02.260Z,9.24
2019-04-05T13:14:31.717Z,9.49
2019-04-05T13:17:02.628Z,9.31
2019-04-05T13:19:32.292Z,9.49
2019-04-05T13:22:22.819Z,9.68
2019-04-05T13:24:52.326Z,9.31
2019-04-05T13:27:21.797Z,9.19
2019-04-05T13:29:51.322Z,9.08
2019-04-05T13:32:22.347Z,9.25
2019-04-05T13:34:53.554Z,9.19
2019-04-05T13:37:23.336Z,9.04
2019-04-05T13:39:52.827Z,9.39
2019-04-05T13:42:22.311Z,9.26
2019-04-05T13:44:51.832Z,9.02
2019-04-05T13:47:21.321Z,8.83
2019-04-05T13:49:50.966Z,8.97
2019-04-05T13:52:20.568Z,8.98
2019-04-05T13:54:50.049Z,8.91
2019-04-05T13:57:19.545Z,9.02
2019-04-05T13:59:49.444Z,8.80
2019-04-05T14:02:21.184Z,8.90
2019-04-05T14:04:53.601Z,8.96
2019-04-05T14:07:23.636Z,8.94
2019-04-05T14:09:52.717Z,9.04
2019-04-05T14:12:22.175Z,8.77
2019-04-05T14:14:51.902Z,8.96
2019-04-05T14:17:21.489Z,9.26
2019-04-05T14:19:50.935Z,9.04
2019-04-05T14:22:22.414Z,9.30
2019-04-05T14:24:52.936Z,8.91
2019-04-05T14:27:23.168Z,8.55
2019-04-05T14:29:52.912Z,8.44
2019-04-05T14:32:41.715Z,8.59
2019-04-05T14:35:11.819Z,8.91
2019-04-05T14:37:41.339Z,9.21
2019-04-05T14:40:14.020Z,9.27
2019-04-05T14:42:45.015Z,9.08
2019-04-05T14:45:14.872Z,8.65
2019-04-05T14:48:03.703Z,8.60
2019-04-05T14:50:34.670Z,8.50
2019-04-05T14:53:23.514Z,8.41
2019-04-05T14:55:52.995Z,8.63
2019-04-05T14:58:22.549Z,8.42
2019-04-05T15:00:52.081Z,8.30
2019-04-05T15:03:21.573Z,8.40
2019-04-05T15:05:51.115Z,8.58
2019-04-05T15:08:21.219Z,8.51
2019-04-05T15:10:51.483Z,8.84
2019-04-05T15:13:21.107Z,8.48
2019-04-05T15:16:11.656Z,7.90
2019-04-05T15:19:03.013Z,8.34
2019-04-05T15:21:34.677Z,8.41
2019-04-05T15:24:23.007Z,8.47
2019-04-05T15:26:52.735Z,8.61
2019-04-05T15:29:25.841Z,8.35
2019-04-05T15:31:55.500Z,8.18
2019-04-05T15:34:28.004Z,8.19
2019-04-05T15:36:55.832Z,8.41
2019-04-05T15:39:25.292Z,8.24
2019-04-05T15:41:54.822Z,8.10
2019-04-05T15:44:43.604Z,8.05
2019-04-05T15:47:13.750Z,8.05
2019-04-05T15:49:43.481Z,8.08
2019-04-05T15:52:18.647Z,8.35
2019-04-05T15:54:44.188Z,8.25
2019-04-05T15:57:13.758Z,8.16
2019-04-05T15:59:45.045Z,8.22
2019-04-05T16:02:15.001Z,8.21
2019-04-05T16:04:44.581Z,8.23
2019-04-05T16:07:14.075Z,8.46
2019-04-05T16:09:43.590Z,8.39
2019-04-05T16:12:13.060Z,8.45
2019-04-05T16:14:42.618Z,8.48
2019-04-05T16:17:12.590Z,8.27
2019-04-05T16:19:42.299Z,8.13
2019-04-05T16:22:11.806Z,8.16
2019-04-05T16:24:41.314Z,8.06
2019-04-05T16:27:10.801Z,8.23
2019-04-05T16:29:40.252Z,8.37
2019-04-05T16:32:09.746Z,8.25
2019-04-05T16:34:39.231Z,8.44
2019-04-05T16:37:08.720Z,8.57
2019-04-05T16:39:38.204Z,8.60
2019-04-05T16:42:12.027Z,8.36
2019-04-05T16:44:41.484Z,8.08
2019-04-05T16:47:30.350Z,8.09
2019-04-05T16:49:59.853Z,8.28
2019-04-05T16:52:29.346Z,8.24
2019-04-05T16:54:58.825Z,8.15
2019-04-05T16:57:28.331Z,7.96
2019-04-05T16:59:58.863Z,7.89
2019-04-05T17:02:28.468Z,7.95
2019-04-05T17:04:58.026Z,7.79
2019-04-05T17:07:27.479Z,7.87
2019-04-05T17:09:57.225Z,8.02
2019-04-05T17:12:45.981Z,8.09
2019-04-05T17:15:16.373Z,8.37
2019-04-05T17:17:45.874Z,8.48
2019-04-05T17:20:15.870Z,8.38
2019-04-05T17:22:57.386Z,8.48
2019-04-05T17:25:16.723Z,8.54
2019-04-05T17:27:46.178Z,8.58
2019-04-05T17:30:36.398Z,8.66
2019-04-05T17:33:05.949Z,8.66
2019-04-05T17:35:36.615Z,8.72
2019-04-05T17:38:06.084Z,8.79
2019-04-05T17:40:35.584Z,8.40
2019-04-05T17:43:06.579Z,8.28
2019-04-05T17:45:36.110Z,8.14
2019-04-05T17:48:05.764Z,7.99
2019-04-05T17:50:36.028Z,8.12
2019-04-05T17:53:12.604Z,7.94
2019-04-05T17:55:37.433Z,8.02
2019-04-05T17:58:28.367Z,7.88
2019-04-05T18:00:58.127Z,7.83
2019-04-05T18:03:27.582Z,7.88
2019-04-05T18:05:57.402Z,8.14
2019-04-05T18:08:46.161Z,8.22
2019-04-05T18:11:15.678Z,8.18
2019-04-05T18:13:45.150Z,8.16
2019-04-05T18:16:14.659Z,8.23
2019-04-05T18:18:44.165Z,8.31
2019-04-05T18:21:13.645Z,8.38
2019-04-05T18:23:43.129Z,8.42
2019-04-05T18:26:12.783Z,8.21
2019-04-05T18:28:42.236Z,8.10
2019-04-05T18:31:11.739Z,7.78
2019-04-05T18:33:41.234Z,7.84
2019-04-05T18:36:10.721Z,7.77
2019-04-05T18:38:40.182Z,7.85
2019-04-05T18:41:10.012Z,7.80
2019-04-05T18:43:39.528Z,7.67
2019-04-05T18:46:09.069Z,7.74
2019-04-05T18:48:38.858Z,7.88
2019-04-05T18:51:08.346Z,8.02
2019-04-05T18:53:38.324Z,8.14
2019-04-05T18:56:07.920Z,8.12
2019-04-05T18:58:37.422Z,8.09
2019-04-05T19:01:07.286Z,8.21
2019-04-05T19:03:37.012Z,8.32
2019-04-05T19:06:07.977Z,8.32
2019-04-05T19:08:39.732Z,8.36
2019-04-05T19:11:08.685Z,8.20
2019-04-05T19:13:38.171Z,8.09
2019-04-05T19:16:07.868Z,8.19
2019-04-05T19:18:37.823Z,8.14
2019-04-05T19:21:07.465Z,8.23
2019-04-05T19:23:49.915Z,8.08
2019-04-05T19:26:08.421Z,8.13
2019-04-05T19:28:37.879Z,8.27
2019-04-05T19:49:05.647Z,8.28
2019-04-05T19:51:35.129Z,8.33
2019-04-05T19:54:05.068Z,8.41
2019-04-05T19:56:34.535Z,8.40
2019-04-05T19:59:04.014Z,8.44
2019-04-05T20:01:52.850Z,8.46
2019-04-05T20:04:22.324Z,8.33
2019-04-05T20:06:58.341Z,8.22
2019-04-05T20:09:23.295Z,8.21
2019-04-05T20:11:52.758Z,8.34
2019-04-05T20:14:22.220Z,8.27
2019-04-05T20:16:51.706Z,8.40
2019-04-05T20:19:21.210Z,8.18
2019-04-05T20:21:50.767Z,8.36
2019-04-05T20:24:20.547Z,8.25
2019-04-05T20:26:50.031Z,8.15
2019-04-05T20:29:21.635Z,7.95
2019-04-05T20:32:10.037Z,7.97
2019-04-05T20:34:39.540Z,8.05
2019-04-05T20:37:09.001Z,8.23
2019-04-05T20:39:38.518Z,8.24
2019-04-05T20:42:08.180Z,8.20
2019-04-05T20:44:37.626Z,8.05
2019-04-05T20:47:07.105Z,8.13
2019-04-05T20:49:36.614Z,7.92
2019-04-05T20:52:06.241Z,8.05
2019-04-05T20:54:35.719Z,8.14
2019-04-05T20:57:05.211Z,8.13
2019-04-05T20:59:34.690Z,8.20
2019-04-05T21:02:04.835Z,8.18
2019-04-05T21:04:34.315Z,8.20
2019-04-05T21:07:03.805Z,8.29
2019-04-05T21:09:33.593Z,8.36
2019-04-05T21:12:03.072Z,8.33
2019-04-05T21:14:32.565Z,8.37
2019-04-05T21:17:03.640Z,8.39
2019-04-05T21:19:33.190Z,8.43
2019-04-05T21:22:02.650Z,8.40
2019-04-05T21:24:36.276Z,8.35
2019-04-05T21:27:03.845Z,8.33
2019-04-05T21:29:52.694Z,8.36
2019-04-05T21:32:22.172Z,8.33
2019-04-05T21:34:51.661Z,8.37
2019-04-05T21:37:40.445Z,8.36
2019-04-05T21:40:10.723Z,8.27
2019-04-05T21:42:40.197Z,8.33
2019-04-05T21:45:10.011Z,8.38
2019-04-05T21:47:39.478Z,8.36
2019-04-05T21:50:10.920Z,8.26
2019-04-05T21:52:40.431Z,8.31
2019-04-05T21:55:10.122Z,8.36
2019-04-05T21:57:58.971Z,8.38
2019-04-05T22:00:34.585Z,8.37
2019-04-05T22:03:04.143Z,8.42
2019-04-05T22:05:35.387Z,8.05
2019-04-05T22:08:04.907Z,8.04
2019-04-05T22:10:34.441Z,8.07
2019-04-05T22:13:04.556Z,8.11
2019-04-05T22:15:34.186Z,8.15
2019-04-05T22:18:04.108Z,8.20
2019-04-05T22:20:33.583Z,8.17
2019-04-05T22:23:03.040Z,8.24
2019-04-05T22:25:32.553Z,8.26
2019-04-05T22:28:02.030Z,8.21
2019-04-05T22:30:31.523Z,8.14
2019-04-05T22:33:01.053Z,8.18
2019-04-05T22:35:30.509Z,8.18
2019-04-05T22:38:00.010Z,8.13
2019-04-05T22:40:29.496Z,7.98
2019-04-05T22:42:58.954Z,7.70
2019-04-05T22:45:47.787Z,7.82
2019-04-05T22:48:17.268Z,7.98
2019-04-05T22:50:46.723Z,8.02
2019-04-05T22:53:16.243Z,8.02
2019-04-05T22:55:45.700Z,8.04
2019-04-05T22:58:15.161Z,8.10
2019-04-05T23:00:45.081Z,7.99
2019-04-05T23:03:15.674Z,7.87
2019-04-05T23:05:45.080Z,7.94
2019-04-05T23:08:14.606Z,7.97
2019-04-05T23:10:44.054Z,7.99
2019-04-05T23:13:13.538Z,8.06
2019-04-05T23:15:43.021Z,8.07
2019-04-05T23:18:12.494Z,8.11
2019-04-05T23:21:01.343Z,8.10
2019-04-05T23:23:30.836Z,8.14
2019-04-05T23:26:00.352Z,8.11
2019-04-05T23:28:29.789Z,7.64
2019-04-05T23:30:59.299Z,7.55
2019-04-05T23:33:28.745Z,7.52
2019-04-05T23:35:58.267Z,7.70
2019-04-05T23:38:27.765Z,7.85
2019-04-05T23:40:59.573Z,7.92
2019-04-05T23:43:28.463Z,7.81
2019-04-05T23:45:58.018Z,7.55
2019-04-05T23:48:27.502Z,7.70
2019-04-05T23:50:57.007Z,7.58
2019-04-05T23:53:26.500Z,7.48
2019-04-05T23:55:55.966Z,7.68
2019-04-05T23:58:25.919Z,7.73
